Terminal Aerodrome Forecast
Issued by NWS

Home | Current Version | Previous Version | Text Only | Print | Product List | Glossary On
Versions: 1 2 3 4 5 6 7 8 9 10 11 12
000
FTUS45 KABQ 062338
TAFSAF
TAF
KSAF 062338Z 0700/0724 17023G33KT P6SM SCT060
     FM070200 14010KT P6SM SCT100
     FM071600 23017G27KT P6SM SCT090=

USA.gov is the U.S. government's official web portal to all federal, state and local government web resources and services.